Time;durP1;ratioP1;P1;durP2;ratioP2;P2;SDS_P1;SDS_P2;PMS_P1;PMS_P2;Temp;Humidity;BMP_temperature;BMP_pressure;BME280_temperature;BME280_humidity;BME280_pressure;Samples;Min_cycle;Max_cycle;Signal;HPM_P1;HPM_P2
2023/08/22 00:02:27;;;;;;;7.30;4.00;;;;;18.50;101570.00;;;;5021253;28;20618;-72
2023/08/22 00:05:14;;;;;;;5.10;4.33;;;;;18.50;101574.00;;;;5019783;28;20604;-71
2023/08/22 00:08:04;;;;;;;6.03;4.43;;;;;18.50;101581.00;;;;5020108;28;20233;-72
2023/08/22 00:10:51;;;;;;;5.53;3.97;;;;;18.50;101577.00;;;;5033355;28;20718;-72
2023/08/22 00:13:37;;;;;;;5.57;4.60;;;;;18.50;101572.00;;;;5028534;28;20457;-71
2023/08/22 00:16:25;;;;;;;7.47;4.00;;;;;18.50;101557.00;;;;5036499;28;20300;-71
2023/08/22 00:19:11;;;;;;;4.53;4.10;;;;;18.60;101552.00;;;;5027902;28;20232;-71
2023/08/22 00:21:58;;;;;;;5.97;4.10;;;;;18.50;101551.00;;;;5026036;28;20777;-72
2023/08/22 00:24:44;;;;;;;5.63;4.53;;;;;18.40;101557.00;;;;5014371;28;20257;-71
2023/08/22 00:27:30;;;;;;;8.40;4.40;;;;;18.40;101551.00;;;;5021493;28;20617;-71
2023/08/22 00:30:17;;;;;;;4.37;3.93;;;;;18.40;101551.00;;;;5018526;28;20364;-71
2023/08/22 00:33:06;;;;;;;10.10;5.07;;;;;18.40;101546.00;;;;5028417;28;20240;-71
2023/08/22 00:35:52;;;;;;;7.53;4.63;;;;;18.40;101537.00;;;;5020413;28;20233;-71
2023/08/22 00:38:38;;;;;;;5.53;4.43;;;;;18.40;101545.00;;;;5016543;28;20242;-71
2023/08/22 00:41:25;;;;;;;5.53;4.40;;;;;18.50;101541.00;;;;5020694;28;20838;-71
2023/08/22 00:44:11;;;;;;;7.37;4.77;;;;;18.50;101528.00;;;;5016182;28;20263;-71
2023/08/22 00:46:59;;;;;;;7.03;4.60;;;;;18.40;101526.00;;;;5020981;28;20242;-71
2023/08/22 00:49:46;;;;;;;6.17;4.30;;;;;18.40;101524.00;;;;5020858;28;20821;-71
2023/08/22 00:52:33;;;;;;;7.30;4.90;;;;;18.40;101520.00;;;;5031243;28;20832;-71
2023/08/22 00:55:20;;;;;;;5.03;4.50;;;;;18.30;101519.00;;;;5023004;28;20233;-72
2023/08/22 00:58:06;;;;;;;6.47;4.77;;;;;18.40;101526.00;;;;5020350;28;20307;-71
2023/08/22 01:00:53;;;;;;;8.13;4.57;;;;;18.40;101517.00;;;;5016284;28;20230;-72
2023/08/22 01:03:39;;;;;;;6.93;4.60;;;;;18.30;101513.00;;;;5023590;28;20710;-69
2023/08/22 01:06:34;;;;;;;6.87;4.60;;;;;18.30;101513.00;;;;5042584;28;20318;-72
2023/08/22 01:09:27;;;;;;;4.73;4.23;;;;;18.40;101514.00;;;;5037986;28;20295;-71
2023/08/22 01:12:21;;;;;;;8.20;4.80;;;;;18.40;101509.00;;;;5035951;28;20225;-71
2023/08/22 01:15:13;;;;;;;5.63;4.70;;;;;18.40;101500.00;;;;5024546;28;20269;-71
2023/08/22 01:18:01;;;;;;;8.50;4.60;;;;;18.40;101504.00;;;;5030912;28;20241;-72
2023/08/22 01:20:47;;;;;;;7.30;4.50;;;;;18.40;101511.00;;;;5022716;28;20793;-71
2023/08/22 01:23:35;;;;;;;5.73;4.10;;;;;18.40;101506.00;;;;5026747;28;20717;-72
2023/08/22 01:26:22;;;;;;;8.60;4.00;;;;;18.40;101502.00;;;;5026125;28;20347;-69
2023/08/22 01:29:11;;;;;;;6.50;4.27;;;;;18.30;101505.00;;;;5022956;28;20280;-70
2023/08/22 01:32:07;;;;;;;5.33;4.10;;;;;18.40;101507.00;;;;5027769;28;20705;-71
2023/08/22 01:34:58;;;;;;;7.10;4.57;;;;;18.40;101506.00;;;;5023534;28;20233;-71
2023/08/22 01:37:45;;;;;;;4.97;4.47;;;;;18.50;101511.00;;;;5024448;28;20600;-72
2023/08/22 01:40:34;;;;;;;7.67;4.40;;;;;18.40;101495.00;;;;5020067;28;20615;-72
2023/08/22 01:43:21;;;;;;;5.60;4.23;;;;;18.30;101494.00;;;;5019508;28;20960;-71
2023/08/22 01:46:08;;;;;;;8.43;4.37;;;;;18.30;101494.00;;;;5017687;28;20233;-72
2023/08/22 01:48:54;;;;;;;6.90;4.07;;;;;18.30;101491.00;;;;5019967;28;20364;-71
2023/08/22 01:51:40;;;;;;;5.10;4.33;;;;;18.40;101496.00;;;;5026427;28;20262;-71
2023/08/22 01:54:26;;;;;;;5.67;3.67;;;;;18.40;101494.00;;;;5028626;28;20910;-71
2023/08/22 01:57:14;;;;;;;7.73;4.17;;;;;18.40;101497.00;;;;5012414;28;20224;-71
2023/08/22 02:00:03;;;;;;;5.90;4.00;;;;;18.30;101513.00;;;;5023785;28;20273;-71
2023/08/22 02:02:49;;;;;;;7.67;4.20;;;;;18.30;101499.00;;;;5023753;28;20229;-72
2023/08/22 02:05:35;;;;;;;4.47;3.97;;;;;18.30;101496.00;;;;5023001;28;20229;-72
2023/08/22 02:08:22;;;;;;;5.50;4.00;;;;;18.30;101505.00;;;;5021231;28;20242;-71
2023/08/22 02:11:09;;;;;;;7.00;3.83;;;;;18.30;101497.00;;;;5021179;28;20229;-72
2023/08/22 02:13:57;;;;;;;6.63;4.60;;;;;18.30;101493.00;;;;5030849;28;20612;-71
2023/08/22 02:16:43;;;;;;;8.37;4.40;;;;;18.20;101493.00;;;;5043271;28;20770;-72
2023/08/22 02:19:30;;;;;;;4.63;3.87;;;;;18.20;101494.00;;;;5027062;28;20240;-72
2023/08/22 02:22:16;;;;;;;6.47;4.10;;;;;18.20;101486.00;;;;5042138;28;20365;-71
2023/08/22 02:25:05;;;;;;;7.30;4.27;;;;;18.20;101494.00;;;;5040142;28;20224;-71
2023/08/22 02:27:51;;;;;;;6.57;4.33;;;;;18.20;101499.00;;;;5038282;28;20982;-71
2023/08/22 02:30:39;;;;;;;7.53;4.10;;;;;18.20;101490.00;;;;5034766;28;20618;-71
2023/08/22 02:33:25;;;;;;;6.23;4.33;;;;;18.10;101486.00;;;;5029885;28;20288;-71
2023/08/22 02:36:11;;;;;;;5.43;4.10;;;;;18.10;101490.00;;;;5024863;28;20221;-72
2023/08/22 02:38:58;;;;;;;7.67;4.77;;;;;18.10;101481.00;;;;5028547;28;20236;-72
2023/08/22 02:41:45;;;;;;;7.03;4.40;;;;;18.00;101478.00;;;;5024039;28;20230;-70
2023/08/22 02:44:31;;;;;;;7.67;4.60;;;;;18.00;101479.00;;;;5023348;28;20244;-72
2023/08/22 02:47:20;;;;;;;7.07;4.53;;;;;18.00;101475.00;;;;5018826;28;20288;-70
2023/08/22 02:50:07;;;;;;;6.47;4.27;;;;;17.90;101474.00;;;;5022601;28;20445;-70
2023/08/22 02:52:53;;;;;;;5.87;4.43;;;;;18.00;101480.00;;;;5025275;28;20749;-72
2023/08/22 02:55:40;;;;;;;5.53;4.57;;;;;17.90;101487.00;;;;5028278;28;20309;-70
2023/08/22 02:58:26;;;;;;;7.13;3.97;;;;;17.90;101492.00;;;;5027071;28;20245;-72
2023/08/22 03:01:13;;;;;;;7.83;4.40;;;;;17.90;101494.00;;;;5025654;28;20224;-72
2023/08/22 03:04:01;;;;;;;6.47;4.43;;;;;17.90;101478.00;;;;5033169;28;20225;-72
2023/08/22 03:06:48;;;;;;;5.17;4.07;;;;;17.80;101494.00;;;;5038157;28;20244;-72
2023/08/22 03:09:34;;;;;;;6.20;4.53;;;;;17.90;101483.00;;;;5029707;28;20232;-69
2023/08/22 03:12:21;;;;;;;6.17;4.33;;;;;17.80;101493.00;;;;5015494;28;20252;-73
2023/08/22 03:15:09;;;;;;;5.53;4.43;;;;;17.80;101478.00;;;;5021775;28;20246;-72
2023/08/22 03:17:55;;;;;;;7.67;4.20;;;;;17.80;101483.00;;;;5021858;28;20222;-71
2023/08/22 03:20:43;;;;;;;5.17;4.50;;;;;17.70;101492.00;;;;5024533;28;20295;-71
2023/08/22 03:23:30;;;;;;;9.20;4.83;;;;;17.70;101488.00;;;;5021895;28;20831;-71
2023/08/22 03:26:16;;;;;;;8.50;4.50;;;;;17.70;101493.00;;;;5012884;28;20800;-71
2023/08/22 03:29:02;;;;;;;6.53;4.40;;;;;17.70;101478.00;;;;5025835;28;20636;-71
2023/08/22 03:31:49;;;;;;;7.07;4.47;;;;;17.70;101485.00;;;;5023290;28;20353;-72
2023/08/22 03:34:36;;;;;;;5.40;4.60;;;;;17.70;101481.00;;;;5022039;28;20245;-72
2023/08/22 03:37:24;;;;;;;5.57;4.37;;;;;17.60;101484.00;;;;5028046;28;20582;-72
2023/08/22 03:40:11;;;;;;;6.90;4.57;;;;;17.60;101491.00;;;;5029851;28;20355;-72
2023/08/22 03:42:57;;;;;;;6.73;4.60;;;;;17.60;101485.00;;;;5025513;28;20283;-72
2023/08/22 03:45:43;;;;;;;5.93;4.87;;;;;17.60;101484.00;;;;5018726;28;20225;-72
2023/08/22 03:48:30;;;;;;;6.20;4.70;;;;;17.60;101476.00;;;;5020163;28;20242;-71
2023/08/22 03:51:17;;;;;;;8.33;5.03;;;;;17.70;101483.00;;;;5024960;28;20352;-71
2023/08/22 03:54:05;;;;;;;5.50;4.40;;;;;17.60;101478.00;;;;5023569;28;20291;-72
2023/08/22 03:56:51;;;;;;;7.07;4.70;;;;;17.60;101474.00;;;;5019438;28;20241;-71
2023/08/22 03:59:38;;;;;;;6.57;4.80;;;;;17.60;101468.00;;;;5029797;28;20233;-72
2023/08/22 04:02:24;;;;;;;7.53;4.77;;;;;17.60;101472.00;;;;5026146;28;20232;-72
2023/08/22 04:05:11;;;;;;;5.33;4.47;;;;;17.50;101459.00;;;;5018927;28;20929;-72
2023/08/22 04:07:57;;;;;;;5.43;4.13;;;;;17.50;101458.00;;;;5021288;28;20275;-73
2023/08/22 04:10:45;;;;;;;6.77;4.87;;;;;17.60;101469.00;;;;5029905;28;20278;-70
2023/08/22 04:13:32;;;;;;;7.20;4.50;;;;;17.60;101459.00;;;;5015403;28;20775;-72
2023/08/22 04:16:19;;;;;;;6.60;4.60;;;;;17.60;101462.00;;;;5017379;28;20619;-70
2023/08/22 04:19:06;;;;;;;8.50;4.23;;;;;17.60;101465.00;;;;5022385;28;20283;-72
2023/08/22 04:21:52;;;;;;;5.47;4.67;;;;;17.60;101467.00;;;;5006168;28;20249;-74
2023/08/22 04:24:39;;;;;;;6.87;4.77;;;;;17.60;101475.00;;;;5020850;28;20232;-72
2023/08/22 04:27:27;;;;;;;6.83;5.07;;;;;17.60;101472.00;;;;5021762;28;20309;-69
2023/08/22 04:30:14;;;;;;;7.93;4.80;;;;;17.60;101468.00;;;;5019195;28;20292;-71
2023/08/22 04:33:01;;;;;;;6.83;5.00;;;;;17.60;101459.00;;;;5017816;28;20758;-71
2023/08/22 04:35:47;;;;;;;6.83;4.87;;;;;17.60;101476.00;;;;5023088;28;20288;-71
2023/08/22 04:38:33;;;;;;;6.77;4.70;;;;;17.60;101469.00;;;;5018330;28;20253;-72
2023/08/22 04:41:20;;;;;;;9.70;4.80;;;;;17.60;101474.00;;;;5014239;28;20229;-72
2023/08/22 04:44:08;;;;;;;5.90;4.30;;;;;17.60;101464.00;;;;5017089;28;20224;-72
2023/08/22 04:46:54;;;;;;;6.37;4.57;;;;;17.60;101477.00;;;;5021116;28;20263;-72
2023/08/22 04:49:41;;;;;;;8.50;4.50;;;;;17.60;101470.00;;;;5026310;28;20801;-72
2023/08/22 04:52:27;;;;;;;6.90;4.67;;;;;17.70;101471.00;;;;5030798;28;20237;-71
2023/08/22 04:55:13;;;;;;;8.53;4.40;;;;;17.70;101468.00;;;;5017736;28;20633;-71
2023/08/22 04:58:00;;;;;;;8.23;4.77;;;;;17.70;101462.00;;;;5023341;28;20256;-71
2023/08/22 05:00:47;;;;;;;10.73;5.20;;;;;17.60;101456.00;;;;5018720;28;20242;-71
2023/08/22 05:03:34;;;;;;;7.77;4.90;;;;;17.60;101463.00;;;;5016392;28;20312;-72
2023/08/22 05:06:21;;;;;;;6.87;5.00;;;;;17.60;101451.00;;;;5019538;28;20846;-71
2023/08/22 05:09:09;;;;;;;7.07;4.60;;;;;17.60;101459.00;;;;5023283;28;20228;-69
2023/08/22 05:11:56;;;;;;;6.33;4.67;;;;;17.60;101462.00;;;;5021450;28;20222;-71
2023/08/22 05:14:42;;;;;;;5.53;4.53;;;;;17.60;101469.00;;;;5019623;28;20275;-71
2023/08/22 05:17:30;;;;;;;7.17;4.67;;;;;17.60;101457.00;;;;5023554;28;20216;-72
2023/08/22 05:20:17;;;;;;;6.23;4.40;;;;;17.50;101465.00;;;;5023268;28;20587;-71
2023/08/22 05:23:04;;;;;;;5.97;4.33;;;;;17.60;101462.00;;;;5024827;28;20344;-71
2023/08/22 05:25:50;;;;;;;9.23;5.10;;;;;17.70;101460.00;;;;5015960;28;20217;-71
2023/08/22 05:28:36;;;;;;;5.97;4.87;;;;;17.70;101462.00;;;;5023804;28;20721;-71
2023/08/22 05:31:23;;;;;;;7.13;4.73;;;;;17.70;101463.00;;;;5023390;28;20256;-71
2023/08/22 05:34:11;;;;;;;6.23;4.70;;;;;17.70;101460.00;;;;5025510;28;20713;-71
2023/08/22 05:36:58;;;;;;;8.20;4.90;;;;;17.70;101466.00;;;;5023590;28;20292;-70
2023/08/22 05:39:44;;;;;;;5.90;4.90;;;;;17.70;101472.00;;;;5024350;28;20237;-69
2023/08/22 05:42:30;;;;;;;6.70;4.67;;;;;17.70;101466.00;;;;5026863;28;20804;-69
2023/08/22 05:45:17;;;;;;;6.57;4.83;;;;;17.80;101481.00;;;;5025882;28;20213;-69
2023/08/22 05:48:04;;;;;;;6.43;4.97;;;;;17.80;101477.00;;;;5027440;28;20372;-70
2023/08/22 05:50:54;;;;;;;7.47;4.80;;;;;17.90;101477.00;;;;5026031;28;20245;-70
2023/08/22 05:53:40;;;;;;;9.50;5.53;;;;;17.90;101472.00;;;;5022878;28;20225;-70
2023/08/22 05:56:27;;;;;;;10.70;5.10;;;;;18.10;101482.00;;;;5025560;28;20361;-70
2023/08/22 05:59:13;;;;;;;13.47;5.80;;;;;18.20;101479.00;;;;5028459;28;20709;-70
2023/08/22 06:02:00;;;;;;;8.60;5.03;;;;;18.20;101488.00;;;;5029382;28;20288;-70
2023/08/22 06:04:46;;;;;;;7.37;5.13;;;;;18.30;101475.00;;;;5025829;28;20213;-71
2023/08/22 06:07:34;;;;;;;8.60;5.33;;;;;18.40;101469.00;;;;5028953;28;20336;-69
2023/08/22 06:10:22;;;;;;;7.43;5.20;;;;;18.40;101474.00;;;;5023953;28;20213;-70
2023/08/22 06:13:09;;;;;;;7.53;5.43;;;;;18.50;101463.00;;;;5028857;28;20221;-70
2023/08/22 06:15:56;;;;;;;7.33;5.37;;;;;18.60;101471.00;;;;5019815;28;20316;-70
2023/08/22 06:18:43;;;;;;;8.97;5.70;;;;;18.60;101480.00;;;;5026928;28;20362;-70
2023/08/22 06:21:30;;;;;;;6.10;4.90;;;;;18.60;101478.00;;;;5023219;28;20221;-68
2023/08/22 06:24:18;;;;;;;9.97;5.63;;;;;18.70;101475.00;;;;5016787;28;20209;-70
2023/08/22 06:27:05;;;;;;;7.63;5.27;;;;;18.80;101483.00;;;;5023363;28;20222;-70
2023/08/22 06:29:52;;;;;;;9.03;5.30;;;;;18.80;101485.00;;;;5028124;28;20249;-70
2023/08/22 06:32:38;;;;;;;6.80;5.07;;;;;18.90;101486.00;;;;5023593;28;20213;-70
2023/08/22 06:35:25;;;;;;;7.73;5.50;;;;;18.90;101481.00;;;;5016482;28;20743;-68
2023/08/22 06:38:11;;;;;;;7.57;5.40;;;;;19.00;101469.00;;;;5020998;28;20241;-69
2023/08/22 06:41:03;;;;;;;8.40;6.00;;;;;19.10;101472.00;;;;5028385;28;20340;-68
2023/08/22 06:43:51;;;;;;;7.37;6.37;;;;;19.20;101471.00;;;;5025087;28;20209;-69
2023/08/22 06:46:38;;;;;;;10.53;6.63;;;;;19.40;101473.00;;;;5026355;28;20222;-70
2023/08/22 06:49:24;;;;;;;12.57;7.37;;;;;19.50;101479.00;;;;5021766;28;20230;-69
2023/08/22 06:52:11;;;;;;;12.33;7.40;;;;;19.50;101479.00;;;;5028325;28;20209;-70
2023/08/22 06:54:58;;;;;;;12.33;7.23;;;;;19.60;101484.00;;;;5027652;28;20214;-70
2023/08/22 06:57:45;;;;;;;10.40;7.00;;;;;19.80;101490.00;;;;5027012;28;20218;-68
2023/08/22 07:00:32;;;;;;;9.27;7.70;;;;;19.90;101493.00;;;;5017740;28;20215;-70
2023/08/22 07:03:18;;;;;;;11.63;6.90;;;;;20.00;101490.00;;;;5020982;28;20787;-69
2023/08/22 07:06:05;;;;;;;10.93;7.33;;;;;20.20;101484.00;;;;5027286;28;20210;-70
2023/08/22 07:08:52;;;;;;;9.77;6.57;;;;;20.30;101492.00;;;;5025060;28;20237;-70
2023/08/22 07:11:40;;;;;;;7.97;6.30;;;;;20.40;101490.00;;;;5022488;28;20219;-68
2023/08/22 07:14:28;;;;;;;12.80;6.73;;;;;20.50;101484.00;;;;5015420;28;20758;-70
2023/08/22 07:17:15;;;;;;;8.23;6.60;;;;;20.60;101484.00;;;;5026853;28;20595;-68
2023/08/22 07:20:01;;;;;;;8.03;5.97;;;;;20.70;101486.00;;;;5021576;28;20234;-70
2023/08/22 07:22:48;;;;;;;9.53;6.57;;;;;20.80;101487.00;;;;5027613;28;20243;-70
2023/08/22 07:25:34;;;;;;;13.13;7.77;;;;;20.90;101483.00;;;;5020105;28;20222;-69
2023/08/22 07:28:21;;;;;;;13.27;8.53;;;;;21.10;101487.00;;;;5021157;28;20235;-70
2023/08/22 07:31:09;;;;;;;15.27;9.30;;;;;21.30;101491.00;;;;5026054;28;20215;-71
2023/08/22 07:33:55;;;;;;;14.07;9.93;;;;;21.50;101487.00;;;;5027519;28;20285;-68
2023/08/22 07:36:42;;;;;;;15.77;9.37;;;;;21.70;101489.00;;;;5027146;28;20396;-70
2023/08/22 07:39:28;;;;;;;13.67;7.90;;;;;21.90;101495.00;;;;5024116;28;20777;-68
2023/08/22 07:42:16;;;;;;;11.73;7.43;;;;;22.00;101496.00;;;;5025631;28;20208;-70
2023/08/22 07:45:04;;;;;;;14.63;6.93;;;;;22.20;101504.00;;;;5017164;28;20703;-70
2023/08/22 07:47:52;;;;;;;10.67;7.47;;;;;22.30;101513.00;;;;5024854;28;20344;-69
2023/08/22 07:50:39;;;;;;;11.97;7.40;;;;;22.40;101515.00;;;;5023962;28;20217;-70
2023/08/22 07:53:25;;;;;;;11.27;7.30;;;;;22.50;101516.00;;;;5025935;28;20217;-67
2023/08/22 07:56:12;;;;;;;10.90;7.60;;;;;22.60;101514.00;;;;5025347;28;20435;-70
2023/08/22 07:58:58;;;;;;;10.93;7.20;;;;;22.70;101513.00;;;;5026623;28;20592;-70
2023/08/22 08:01:45;;;;;;;9.90;7.30;;;;;22.90;101516.00;;;;5022859;28;20853;-67
2023/08/22 08:04:33;;;;;;;10.37;6.90;;;;;22.90;101513.00;;;;5026357;28;20228;-71
2023/08/22 08:07:20;;;;;;;11.60;5.77;;;;;23.00;101517.00;;;;5024359;28;20272;-70
2023/08/22 08:10:07;;;;;;;10.03;6.23;;;;;23.00;101513.00;;;;5026978;28;20361;-70
2023/08/22 08:12:54;;;;;;;9.23;6.30;;;;;23.00;101511.00;;;;5023739;28;20297;-70
2023/08/22 08:15:41;;;;;;;8.23;5.70;;;;;23.20;101517.00;;;;5025306;28;20344;-68
2023/08/22 08:18:27;;;;;;;12.20;5.30;;;;;23.20;101514.00;;;;5026535;28;20236;-70
2023/08/22 08:21:15;;;;;;;11.03;5.57;;;;;23.20;101519.00;;;;5027057;28;20209;-70
2023/08/22 08:24:03;;;;;;;9.27;4.10;;;;;23.30;101525.00;;;;5023941;28;20313;-68
2023/08/22 08:26:50;;;;;;;5.50;3.80;;;;;23.50;101523.00;;;;5025377;28;20217;-70
2023/08/22 08:29:36;;;;;;;6.97;3.30;;;;;23.70;101524.00;;;;5012608;28;20303;-69
2023/08/22 08:32:24;;;;;;;6.83;3.20;;;;;23.90;101524.00;;;;5026545;28;20311;-70
2023/08/22 08:35:11;;;;;;;7.00;3.10;;;;;24.00;101522.00;;;;5026181;28;20216;-69
2023/08/22 08:37:59;;;;;;;6.63;2.80;;;;;24.20;101515.00;;;;5024657;28;20226;-68
2023/08/22 08:40:47;;;;;;;4.57;2.67;;;;;24.20;101505.00;;;;5020872;28;20225;-69
2023/08/22 08:43:35;;;;;;;7.33;2.60;;;;;24.30;101507.00;;;;5020222;28;20221;-70
2023/08/22 08:46:25;;;;;;;5.90;2.57;;;;;24.40;101516.00;;;;5015059;28;20290;-68
2023/08/22 08:49:14;;;;;;;6.17;2.83;;;;;24.60;101513.00;;;;5023974;28;20245;-70
2023/08/22 08:52:02;;;;;;;5.80;2.60;;;;;24.70;101523.00;;;;5023237;28;20210;-70
2023/08/22 08:54:51;;;;;;;4.63;2.77;;;;;24.90;101512.00;;;;5021664;28;20208;-69
2023/08/22 08:57:38;;;;;;;8.97;3.03;;;;;24.90;101528.00;;;;5021403;28;20229;-69
2023/08/22 09:00:24;;;;;;;4.83;2.10;;;;;24.90;101518.00;;;;5026775;28;20279;-68
2023/08/22 09:03:10;;;;;;;5.40;2.67;;;;;25.00;101527.00;;;;5024628;28;20230;-70
2023/08/22 09:05:57;;;;;;;4.53;2.50;;;;;25.00;101529.00;;;;5019509;28;20210;-70
2023/08/22 09:09:02;;;;;;;8.83;2.57;;;;;25.00;101523.00;;;;5020831;28;20324;-69
2023/08/22 09:11:51;;;;;;;3.13;1.90;;;;;25.10;101530.00;;;;5025444;28;20575;-70
2023/08/22 09:14:41;;;;;;;2.97;2.00;;;;;25.20;101536.00;;;;5014731;28;20205;-70
2023/08/22 09:17:29;;;;;;;4.23;1.90;;;;;25.30;101538.00;;;;5020168;28;20224;-69
2023/08/22 09:20:18;;;;;;;5.30;1.90;;;;;25.40;101536.00;;;;5032461;28;20713;-70
2023/08/22 09:23:04;;;;;;;5.57;2.17;;;;;25.40;101538.00;;;;5027349;28;20572;-70
2023/08/22 09:25:51;;;;;;;3.95;2.00;;;;;25.40;101543.00;;;;5032832;28;20209;-69
2023/08/22 09:28:40;;;;;;;3.53;1.90;;;;;25.50;101549.00;;;;5032113;28;20253;-69
2023/08/22 09:31:27;;;;;;;3.15;2.10;;;;;25.50;101551.00;;;;5024968;28;20814;-70
2023/08/22 09:34:14;;;;;;;2.57;1.97;;;;;25.40;101552.00;;;;5032509;28;20213;-70
2023/08/22 09:37:01;;;;;;;4.20;1.92;;;;;25.30;101548.00;;;;5028452;28;20751;-70
2023/08/22 09:39:54;;;;;;;3.83;1.90;;;;;25.50;101549.00;;;;5025385;28;20226;-70
2023/08/22 09:42:41;;;;;;;2.78;2.00;;;;;25.60;101547.00;;;;5028542;28;20265;-70
2023/08/22 09:45:31;;;;;;;4.93;1.95;;;;;25.60;101543.00;;;;5028000;28;20551;-70
2023/08/22 09:48:25;;;;;;;2.05;1.85;;;;;25.60;101545.00;;;;5029530;28;20233;-69
2023/08/22 09:51:13;;;;;;;4.78;1.85;;;;;25.70;101533.00;;;;5026742;28;20218;-69
2023/08/22 09:54:03;;;;;;;4.45;1.92;;;;;25.80;101537.00;;;;5028987;28;20721;-70
2023/08/22 09:56:50;;;;;;;3.00;1.75;;;;;25.80;101528.00;;;;5027878;28;20209;-70
2023/08/22 09:59:38;;;;;;;2.67;1.83;;;;;25.80;101545.00;;;;5024526;28;20369;-70
2023/08/22 10:02:29;;;;;;;2.30;1.80;;;;;25.90;101540.00;;;;5023258;28;20217;-70
2023/08/22 10:05:16;;;;;;;7.30;2.13;;;;;25.80;101542.00;;;;5029863;28;20217;-70
2023/08/22 10:08:05;;;;;;;6.38;1.90;;;;;25.80;101537.00;;;;5028805;28;20327;-69
2023/08/22 10:10:52;;;;;;;4.70;2.15;;;;;25.80;101537.00;;;;5029328;28;20236;-70
2023/08/22 10:13:40;;;;;;;1.77;1.67;;;;;25.70;101537.00;;;;5025391;28;20214;-71
2023/08/22 10:16:30;;;;;;;2.70;1.85;;;;;25.70;101546.00;;;;5027737;28;20209;-70
2023/08/22 10:19:20;;;;;;;4.00;1.90;;;;;25.70;101539.00;;;;5024751;28;20230;-69
2023/08/22 10:22:08;;;;;;;7.70;1.80;;;;;25.70;101535.00;;;;5030173;28;20268;-70
2023/08/22 10:25:02;;;;;;;2.85;2.10;;;;;25.70;101541.00;;;;5023134;28;20305;-71
2023/08/22 10:27:49;;;;;;;4.07;2.10;;;;;25.60;101537.00;;;;5022049;28;20284;-68
2023/08/22 10:31:03;;;;;;;2.90;1.80;;;;;25.60;101535.00;;;;5017243;28;20211;-70
2023/08/22 10:34:02;;;;;;;4.40;2.00;;;;;25.50;101540.00;;;;5023421;28;20896;-70
2023/08/22 10:36:59;;;;;;;5.10;2.40;;;;;25.50;101540.00;;;;5023554;28;20205;-70
2023/08/22 10:39:47;;;;;;;3.33;1.98;;;;;25.40;101545.00;;;;5024365;28;20834;-70
2023/08/22 10:42:34;;;;;;;4.35;2.00;;;;;25.40;101541.00;;;;5025938;28;20224;-70
2023/08/22 10:45:21;;;;;;;5.32;2.15;;;;;25.40;101548.00;;;;5023517;28;20218;-70
2023/08/22 10:48:11;;;;;;;3.60;1.95;;;;;25.30;101545.00;;;;5023813;28;20300;-69
2023/08/22 10:51:06;;;;;;;2.95;1.75;;;;;25.50;101540.00;;;;5029139;28;20587;-70
2023/08/22 10:53:58;;;;;;;3.33;1.92;;;;;26.00;101550.00;;;;5023275;28;20576;-70
2023/08/22 10:56:45;;;;;;;2.72;1.83;;;;;26.40;101556.00;;;;5020906;28;20209;-70
2023/08/22 10:59:31;;;;;;;2.38;1.90;;;;;26.60;101547.00;;;;5026437;28;20230;-70
2023/08/22 11:02:18;;;;;;;3.95;1.73;;;;;26.60;101548.00;;;;5027067;28;20206;-70
2023/08/22 11:05:07;;;;;;;2.47;1.70;;;;;26.70;101546.00;;;;5022622;28;20273;-69
2023/08/22 11:07:54;;;;;;;3.83;1.90;;;;;26.70;101556.00;;;;5023594;28;20233;-70
2023/08/22 11:10:43;;;;;;;8.07;1.92;;;;;26.70;101551.00;;;;5021726;28;20210;-71
2023/08/22 11:13:38;;;;;;;3.78;1.70;;;;;26.60;101546.00;;;;5027323;28;20284;-70
2023/08/22 11:16:25;;;;;;;3.00;1.83;;;;;26.80;101548.00;;;;5026943;28;20210;-70
2023/08/22 11:19:12;;;;;;;3.17;1.90;;;;;26.90;101548.00;;;;5018064;28;20237;-70
2023/08/22 11:22:00;;;;;;;3.22;1.90;;;;;26.90;101540.00;;;;5023986;28;20210;-70
2023/08/22 11:24:47;;;;;;;3.08;1.75;;;;;27.00;101548.00;;;;5021934;28;20345;-70
2023/08/22 11:27:38;;;;;;;5.53;1.88;;;;;27.10;101550.00;;;;5020501;28;20218;-70
2023/08/22 11:30:25;;;;;;;3.75;1.90;;;;;27.10;101546.00;;;;5026764;28;20591;-70
2023/08/22 11:33:20;;;;;;;3.70;2.08;;;;;27.40;101549.00;;;;5024206;28;20210;-70
2023/08/22 11:36:07;;;;;;;4.43;2.40;;;;;27.60;101545.00;;;;5025607;28;20694;-70
2023/08/22 11:38:54;;;;;;;2.80;1.90;;;;;27.40;101548.00;;;;5017449;28;20221;-70
2023/08/22 11:41:41;;;;;;;4.40;2.05;;;;;27.40;101553.00;;;;5020532;28;20702;-70
2023/08/22 11:44:29;;;;;;;3.72;2.00;;;;;27.20;101560.00;;;;5026821;28;20305;-71
2023/08/22 11:47:15;;;;;;;7.40;2.22;;;;;27.20;101551.00;;;;5026697;28;20285;-70
2023/08/22 11:50:02;;;;;;;3.92;2.05;;;;;27.20;101539.00;;;;5027431;28;20229;-71
2023/08/22 11:52:55;;;;;;;3.50;2.00;;;;;27.10;101544.00;;;;5026787;28;20210;-70
2023/08/22 11:55:43;;;;;;;3.85;2.00;;;;;27.00;101538.00;;;;5019162;28;20284;-71
2023/08/22 11:58:43;;;;;;;2.80;1.98;;;;;27.20;101552.00;;;;5013466;28;20288;-72
2023/08/22 12:01:32;;;;;;;2.92;2.08;;;;;27.30;101538.00;;;;5024488;28;20221;-71
2023/08/22 12:04:18;;;;;;;2.30;1.80;;;;;27.50;101547.00;;;;5021731;28;20676;-71
2023/08/22 12:07:05;;;;;;;4.78;2.35;;;;;27.60;101548.00;;;;5026357;28;20558;-71
2023/08/22 12:09:59;;;;;;;4.72;2.20;;;;;27.70;101545.00;;;;5021480;28;20230;-71
2023/08/22 12:12:45;;;;;;;4.80;2.00;;;;;27.80;101550.00;;;;5022318;28;20341;-69
2023/08/22 12:15:32;;;;;;;4.13;1.98;;;;;28.10;101553.00;;;;5026052;28;20348;-68
2023/08/22 12:18:20;;;;;;;7.00;2.30;;;;;28.50;101553.00;;;;5026302;28;20264;-69
2023/08/22 12:21:07;;;;;;;4.70;2.40;;;;;29.00;101552.00;;;;5027234;28;20722;-71
2023/08/22 12:23:54;;;;;;;4.15;2.17;;;;;29.00;101546.00;;;;5018640;28;20288;-69
2023/08/22 12:26:40;;;;;;;2.63;1.88;;;;;29.20;101556.00;;;;5023254;28;20292;-69
2023/08/22 12:29:27;;;;;;;3.33;2.30;;;;;29.00;101562.00;;;;5027089;28;20241;-69
2023/08/22 12:32:15;;;;;;;2.75;2.08;;;;;28.90;101560.00;;;;5021014;28;20209;-69
2023/08/22 12:35:04;;;;;;;4.00;1.85;;;;;28.80;101557.00;;;;5024545;28;20586;-69
2023/08/22 12:37:50;;;;;;;6.18;2.00;;;;;28.80;101565.00;;;;5022187;28;20213;-67
2023/08/22 12:40:37;;;;;;;4.20;1.90;;;;;28.90;101568.00;;;;5019318;28;20208;-69
2023/08/22 12:43:23;;;;;;;3.72;2.05;;;;;28.70;101560.00;;;;5017911;28;20237;-69
2023/08/22 12:46:09;;;;;;;3.53;2.20;;;;;28.50;101558.00;;;;5019924;28;20261;-69
2023/08/22 12:48:56;;;;;;;5.65;2.40;;;;;28.50;101549.00;;;;5021650;28;20680;-70
2023/08/22 12:51:44;;;;;;;7.53;2.25;;;;;28.20;101556.00;;;;5024311;28;20206;-67
2023/08/22 12:54:30;;;;;;;4.53;2.00;;;;;28.10;101561.00;;;;5019965;28;20217;-69
2023/08/22 12:57:16;;;;;;;4.45;1.80;;;;;28.10;101552.00;;;;5022837;28;20590;-70
2023/08/22 13:00:04;;;;;;;3.83;1.95;;;;;27.90;101559.00;;;;5021832;28;20300;-71
2023/08/22 13:02:51;;;;;;;3.25;1.92;;;;;27.70;101554.00;;;;5023070;28;20217;-68
2023/08/22 13:05:38;;;;;;;3.10;2.08;;;;;27.60;101565.00;;;;5019588;28;20217;-69
2023/08/22 13:08:27;;;;;;;3.20;1.83;;;;;27.30;101551.00;;;;5022656;28;20303;-71
2023/08/22 13:11:13;;;;;;;6.25;2.30;;;;;27.40;101562.00;;;;5022938;28;20263;-67
2023/08/22 13:14:00;;;;;;;3.03;2.10;;;;;27.40;101563.00;;;;5026326;28;20213;-68
2023/08/22 13:16:46;;;;;;;5.05;2.10;;;;;27.30;101560.00;;;;5020478;28;20280;-71
2023/08/22 13:19:33;;;;;;;4.45;2.40;;;;;27.30;101549.00;;;;5025206;28;23443;-69
2023/08/22 13:22:19;;;;;;;6.95;2.38;;;;;27.20;101545.00;;;;5023122;28;20218;-69
2023/08/22 13:25:09;;;;;;;3.53;2.00;;;;;27.30;101549.00;;;;5024697;28;20209;-69
2023/08/22 13:27:56;;;;;;;4.82;2.80;;;;;27.20;101554.00;;;;5022218;28;20213;-66
2023/08/22 13:30:43;;;;;;;3.55;2.40;;;;;27.00;101564.00;;;;5018664;28;20774;-69
2023/08/22 13:33:29;;;;;;;9.25;2.35;;;;;27.00;101552.00;;;;5023215;28;20209;-69
2023/08/22 13:36:15;;;;;;;6.00;2.30;;;;;27.10;101542.00;;;;5025162;28;20213;-68
2023/08/22 13:39:02;;;;;;;3.83;2.10;;;;;27.20;101549.00;;;;5019784;28;20244;-69
2023/08/22 13:41:50;;;;;;;4.20;2.60;;;;;27.20;101555.00;;;;5019134;28;20205;-67
2023/08/22 13:44:37;;;;;;;2.40;2.00;;;;;27.20;101554.00;;;;5025169;28;20618;-69
2023/08/22 13:47:25;;;;;;;4.10;2.40;;;;;27.30;101550.00;;;;5025222;28;20303;-68
2023/08/22 13:50:12;;;;;;;7.30;3.00;;;;;27.30;101551.00;;;;5022689;28;20232;-69